Observations for Trim Market St
| Time | AQI | Temp °C | Hum % | Pres Pa | CO μg/m³ | H₂S μg/m³ | NO μg/m³ | NO₂ μg/m³ | O₃ μg/m³ | SO₂ μg/m³ | PM1 μg/m³ | PM2.5 μg/m³ | PM10 μg/m³ |
|---|---|---|---|---|---|---|---|---|---|---|---|---|---|
| Sunday 23 August 2026 | |||||||||||||
| 10:28 | 2 | 20.6 | 48 | 64,726 | 0.22 | 0 | 1.49 | 5.12 | 60.13 | 0 | 0 | 3.04 | 3.35 |
| 10:27 | 2 | 20.5 | 49 | 64,607 | 0.28 | 0 | 1.47 | 5.23 | 56.12 | 0 | 0 | 3.03 | 3.33 |
| 10:26 | 2 | 20.4 | 49 | 64,458 | 0.28 | 0 | 1.51 | 6.22 | 60.28 | 0 | 0 | 2.5 | 3.02 |
| 10:25 | 2 | 20.4 | 49 | 64,321 | 0.27 | 0 | 1.44 | 7.26 | 58.94 | 0 | 0 | 1.97 | 2.17 |
| 10:24 | 2 | 20.3 | 49 | 64,209 | 0.22 | 0 | 1.5 | 5.51 | 60.85 | 0 | 0 | 1.96 | 2.16 |
| 10:23 | 2 | 20.2 | 50 | 63,993 | 0.23 | 0 | 1.49 | 5.38 | 57.17 | 0 | 0 | 1.95 | 2.15 |
| 10:22 | 2 | 20.2 | 50 | 63,709 | 0.23 | 0 | 1.39 | 5.31 | 59.95 | 0 | 0 | 2.45 | 3.05 |
| 10:21 | 2 | 20.1 | 50 | 63,462 | 0.22 | 0 | 1.38 | 4.91 | 60.11 | 0 | 0 | 2.95 | 3.06 |
| 10:20 | 2 | 20 | 51 | 63,167 | 0.24 | 0 | 1.39 | 5.59 | 62.58 | 0 | 0 | 2.43 | 2.67 |
| 10:19 | 2 | 20 | 51 | 62,911 | 0.23 | 0 | 1.37 | 5.22 | 61.37 | 0 | 0 | 2.93 | 3.08 |
| 10:18 | 2 | 19.9 | 51 | 62,707 | 0.26 | 0 | 1.38 | 5.85 | 60.64 | 0 | 0 | 2.41 | 2.65 |
| 10:17 | 2 | 19.9 | 51 | 62,444 | 0.29 | 0 | 1.48 | 5.38 | 61.54 | 0 | 0.71 | 2.91 | 3.1 |
| 10:15 | 2 | 19.8 | 52 | 62,084 | 0.72 | 0 | 1.82 | 7.09 | 55.62 | 0 | 0.71 | 2.38 | 2.62 |
| 10:14 | 2 | 19.8 | 52 | 61,899 | 0.44 | 0 | 1.74 | 7.09 | 57.37 | 0 | 0 | 2.89 | 3.12 |
| 10:12 | 2 | 19.6 | 52 | 61,565 | 0.29 | 0 | 1.5 | 10.37 | 50.42 | 0 | 0.71 | 2.87 | 3.13 |
| 10:11 | 2 | 19.6 | 52 | 61,404 | 0.3 | 0 | 1.39 | 5.51 | 61.6 | 0 | 0 | 2.36 | 2.4 |
| 10:10 | 2 | 19.6 | 52 | 61,077 | 0.27 | 0 | 1.39 | 5.17 | 59.81 | 0 | 0 | 2.35 | 2.41 |
| 10:07 | 2 | 19.5 | 53 | 59,928 | 0.29 | 0 | 1.61 | 5 | 62.58 | 0 | 0.71 | 3.34 | 4.62 |
| 10:05 | 2 | 19.4 | 54 | 58,442 | 0.34 | 0 | 2.79 | 5.66 | 56.85 | 0 | 0 | 1.79 | 3.18 |
| 10:04 | 2 | 19.3 | 54 | 57,882 | 0.29 | 0 | 2.83 | 5.71 | 57.79 | 0 | 0 | 2.29 | 2.46 |